Time;durP1;ratioP1;P1;durP2;ratioP2;P2;SDS_P1;SDS_P2;PMS_P1;PMS_P2;Temp;Humidity;BMP_temperature;BMP_pressure;BME280_temperature;BME280_humidity;BME280_pressure;Samples;Min_cycle;Max_cycle;Signal;HPM_P1;HPM_P2
2021/12/24 00:02:10;;;;;;;3.57;2.83;;;8.20;99.90;;;8.40;83.70;99959.88;4974080;28;20662;-67
2021/12/24 00:04:37;;;;;;;4.83;2.93;;;8.20;99.90;;;8.43;83.75;99957.88;4968066;28;20651;-69
2021/12/24 00:07:04;;;;;;;0.83;0.80;;;8.30;99.90;;;8.47;83.72;99950.72;4971175;28;20635;-69
2021/12/24 00:09:33;;;;;;;2.30;2.20;;;8.30;99.90;;;8.51;83.38;99952.13;4970147;28;20682;-69
2021/12/24 00:12:04;;;;;;;1.77;1.67;;;8.30;99.90;;;8.48;83.55;99941.94;4971942;28;20697;-69
2021/12/24 00:14:32;;;;;;;3.43;2.70;;;8.30;99.90;;;8.41;84.08;99932.97;4965019;28;20642;-68
2021/12/24 00:17:00;;;;;;;3.70;2.57;;;8.30;99.90;;;8.39;84.43;99943.44;4978280;28;20635;-69
2021/12/24 00:22:43;;;;;;;2.93;2.40;;;8.20;99.90;;;8.48;84.28;99936.75;4968102;28;20659;-68
2021/12/24 00:36:05;;;;;;;1.83;1.20;;;8.40;99.90;;;8.50;84.02;99929.66;4970668;28;20619;-67
2021/12/24 00:38:32;;;;;;;5.63;1.90;;;8.40;99.90;;;8.54;83.90;99931.09;4972531;28;20627;-68
2021/12/24 00:40:59;;;;;;;3.87;2.60;;;8.40;99.90;;;8.58;83.76;99937.75;4966952;28;20647;-69
2021/12/24 00:43:26;;;;;;;3.23;2.10;;;8.40;99.90;;;8.58;83.96;99932.53;4970647;28;20641;-70
2021/12/24 00:45:53;;;;;;;5.87;2.53;;;8.50;99.90;;;8.64;83.55;99921.69;4967680;28;20669;-67
2021/12/24 00:48:20;;;;;;;4.13;2.73;;;8.50;99.90;;;8.67;83.70;99913.63;4967833;28;20622;-70
2021/12/24 00:51:06;;;;;;;6.03;4.83;;;8.50;99.90;;;8.72;83.06;99902.88;4969166;28;20611;-69
2021/12/24 00:56:13;;;;;;;6.97;4.60;;;8.50;99.90;;;8.66;83.04;99903.34;4970571;28;20588;-66
2021/12/24 00:58:42;;;;;;;3.50;3.17;;;8.50;99.90;;;8.63;83.28;99907.00;4967055;28;20631;-69
2021/12/24 01:01:13;;;;;;;7.80;4.20;;;8.40;99.90;;;8.59;83.49;99909.03;4951658;29;20588;-67
2021/12/24 01:03:41;;;;;;;5.47;3.67;;;8.40;99.90;;;8.62;83.29;99907.13;4965064;28;20722;-67
2021/12/24 01:06:08;;;;;;;8.60;4.17;;;8.40;99.90;;;8.67;83.15;99912.81;4933622;29;21011;-67
2021/12/24 01:08:35;;;;;;;10.53;4.53;;;8.50;99.90;;;8.70;82.75;99915.19;4951709;28;20608;-68
2021/12/24 01:11:06;;;;;;;6.17;3.60;;;8.50;99.90;;;8.65;83.04;99909.47;4964650;28;20993;-69
2021/12/24 01:13:33;;;;;;;2.00;1.90;;;8.50;99.90;;;8.65;83.51;99918.13;4971199;28;20734;-68
2021/12/24 01:16:06;;;;;;;4.47;3.40;;;8.50;99.90;;;8.67;83.47;99918.81;4968229;28;20637;-66
2021/12/24 01:26:20;;;;;;;2.67;0.90;;;8.60;99.90;;;8.67;83.60;99897.22;4949780;28;20956;-66
2021/12/24 01:45:00;;;;;;;6.27;3.17;;;8.50;99.90;;;8.62;83.68;99887.16;5007524;28;20640;-64
2021/12/24 01:47:27;;;;;;;6.87;4.27;;;8.50;99.90;;;8.67;83.28;99894.63;5006003;28;21007;-63
2021/12/24 01:49:54;;;;;;;5.80;4.13;;;8.50;99.90;;;8.68;83.36;99888.47;5003300;28;20645;-64
2021/12/24 01:52:21;;;;;;;5.33;4.40;;;8.50;99.90;;;8.69;83.24;99903.13;5012264;28;21244;-64
2021/12/24 01:54:47;;;;;;;5.13;4.33;;;8.50;99.90;;;8.69;82.76;99893.53;5013355;28;20988;-63
2021/12/24 01:57:15;;;;;;;3.47;2.97;;;8.50;99.90;;;8.67;83.41;99894.63;5012772;28;21075;-64
2021/12/24 01:59:42;;;;;;;5.57;3.90;;;8.50;99.90;;;8.58;84.04;99902.16;5014305;28;20980;-64
2021/12/24 02:02:09;;;;;;;5.50;4.30;;;8.40;99.90;;;8.59;83.83;99897.78;5012115;28;21238;-64
2021/12/24 02:04:36;;;;;;;5.40;3.23;;;8.40;99.90;;;8.59;83.36;99890.81;5013206;28;20701;-64
2021/12/24 02:07:04;;;;;;;5.57;4.20;;;8.40;99.90;;;8.53;83.63;99887.84;5013400;28;20639;-64
2021/12/24 02:09:34;;;;;;;5.53;3.80;;;8.40;99.90;;;8.53;84.00;99883.47;5013916;28;20632;-64
2021/12/24 02:12:05;;;;;;;6.63;4.90;;;8.30;99.90;;;8.55;83.48;99871.19;5013358;28;20684;-64
2021/12/24 02:14:36;;;;;;;11.50;4.87;;;8.30;99.90;;;8.56;83.87;99872.03;4986681;28;20668;-62
2021/12/24 02:30:44;;;;;;;3.53;3.20;;;8.20;99.90;;;8.50;87.07;99815.28;5013982;28;20647;-64
2021/12/24 02:33:12;;;;;;;5.80;3.97;;;8.30;99.90;;;8.62;88.40;99813.53;5012168;28;20683;-64
2021/12/24 02:35:39;;;;;;;2.83;2.63;;;8.50;99.90;;;8.70;88.67;99813.75;5010780;28;20659;-64
2021/12/24 02:38:06;;;;;;;9.80;3.40;;;8.60;99.90;;;8.74;89.40;99790.00;4996568;28;20620;-64
2021/12/24 02:40:34;;;;;;;2.80;2.60;;;8.60;99.90;;;8.87;90.47;99785.50;5013217;28;20696;-64
2021/12/24 02:43:02;;;;;;;4.80;3.60;;;8.70;99.90;;;9.00;90.20;99793.16;5014067;28;20645;-64
2021/12/24 02:45:33;;;;;;;4.50;2.70;;;8.80;99.90;;;9.08;90.06;99795.97;5014026;28;20617;-63
2021/12/24 02:56:13;;;;;;;3.63;3.33;;;9.10;99.90;;;9.33;89.83;99800.91;4993615;28;20633;-63
2021/12/24 02:58:50;;;;;;;3.17;2.87;;;9.10;99.90;;;9.39;89.43;99803.03;4992242;28;20729;-64
2021/12/24 03:01:26;;;;;;;4.87;3.10;;;9.20;99.90;;;9.41;89.94;99797.69;4993760;28;20586;-63
2021/12/24 03:03:53;;;;;;;3.30;2.90;;;9.20;99.90;;;9.43;88.94;99782.78;5011096;28;20692;-64
2021/12/24 03:06:28;;;;;;;3.50;3.00;;;9.30;99.90;;;9.47;89.49;99789.38;5011755;28;20631;-64
2021/12/24 03:08:55;;;;;;;3.73;3.03;;;9.30;99.90;;;9.53;89.07;99794.94;4994249;28;20629;-64
2021/12/24 03:11:23;;;;;;;3.17;2.87;;;9.40;99.90;;;9.56;89.58;99783.44;4995770;28;21230;-64
2021/12/24 03:13:52;;;;;;;3.40;3.10;;;9.40;99.90;;;9.60;89.62;99774.44;5012136;28;20664;-64
2021/12/24 03:16:21;;;;;;;2.47;2.27;;;9.40;99.90;;;9.55;89.34;99773.97;5013223;28;20617;-64
2021/12/24 03:18:49;;;;;;;4.40;3.20;;;9.30;99.90;;;9.55;89.75;99792.19;4981474;28;20666;-63
2021/12/24 03:26:31;;;;;;;3.50;3.20;;;9.20;99.90;;;9.49;90.13;99796.13;5012135;28;20621;-64
2021/12/24 03:28:58;;;;;;;3.67;2.27;;;9.30;99.90;;;9.51;89.99;99794.22;4993921;28;20630;-64
2021/12/24 03:31:25;;;;;;;3.93;2.90;;;9.30;99.90;;;9.49;90.50;99793.53;4993270;28;20618;-64
2021/12/24 03:33:53;;;;;;;4.47;3.20;;;9.30;99.90;;;9.50;90.35;99784.75;4991860;28;20672;-64
2021/12/24 03:36:23;;;;;;;6.73;3.80;;;9.30;99.90;;;9.54;89.71;99760.09;5007949;28;20741;-63
2021/12/24 03:38:51;;;;;;;4.80;3.60;;;9.30;99.90;;;9.55;89.74;99769.59;5012711;28;20612;-64
2021/12/24 03:41:17;;;;;;;5.80;4.60;;;9.40;99.90;;;9.52;90.44;99772.44;5011231;28;21013;-63
2021/12/24 03:43:45;;;;;;;4.77;4.00;;;9.30;99.90;;;9.50;90.13;99776.94;5012253;28;20661;-64
2021/12/24 03:46:16;;;;;;;6.13;3.97;;;9.30;99.90;;;9.47;90.25;99776.38;5012313;28;20619;-63
2021/12/24 03:48:50;;;;;;;8.67;4.60;;;9.20;99.90;;;9.41;90.07;99777.69;5011567;28;21308;-64
2021/12/24 03:56:37;;;;;;;6.47;4.80;;;9.20;99.90;;;9.43;90.20;99796.63;5010735;28;20897;-63
2021/12/24 03:59:06;;;;;;;3.87;3.43;;;9.20;99.90;;;9.44;90.60;99782.66;5012391;28;21177;-64
2021/12/24 04:01:34;;;;;;;1.87;1.77;;;9.30;99.90;;;9.44;90.41;99772.22;5011302;28;21231;-64
2021/12/24 04:04:02;;;;;;;4.10;2.40;;;9.20;99.90;;;9.42;90.34;99758.50;4995769;28;20645;-64
2021/12/24 04:06:30;;;;;;;6.10;4.40;;;9.20;99.90;;;9.35;91.43;99755.56;5010862;28;20644;-63
2021/12/24 04:08:57;;;;;;;8.33;4.33;;;9.10;99.90;;;9.35;91.13;99767.75;5001791;28;20642;-64
2021/12/24 04:11:24;;;;;;;7.40;4.37;;;9.10;99.90;;;9.36;91.34;99767.66;4992327;28;20610;-64
2021/12/24 04:13:51;;;;;;;5.00;3.37;;;9.10;99.90;;;9.37;90.86;99779.72;4998790;28;20748;-64
2021/12/24 04:16:18;;;;;;;4.43;3.30;;;9.20;99.90;;;9.36;91.23;99785.88;5012331;28;20998;-64
2021/12/24 04:26:45;;;;;;;4.17;3.27;;;9.30;99.90;;;9.42;90.85;99768.94;5010737;28;20633;-63
2021/12/24 04:29:13;;;;;;;10.37;4.30;;;9.20;99.90;;;9.42;91.15;99778.50;5011107;28;20641;-64
2021/12/24 04:31:44;;;;;;;5.97;4.57;;;9.20;99.90;;;9.42;91.43;99770.69;5011322;28;20641;-64
2021/12/24 04:34:13;;;;;;;5.67;2.73;;;9.20;99.90;;;9.41;91.55;99766.47;5012313;28;21236;-64
2021/12/24 05:04:02;;;;;;;5.23;3.57;;;9.20;99.90;;;9.49;90.99;99757.06;4969840;28;20649;-63
2021/12/24 05:06:35;;;;;;;5.17;3.70;;;9.30;99.90;;;9.48;90.88;99767.59;4989313;28;21078;-64
2021/12/24 05:09:08;;;;;;;1.70;1.60;;;9.30;99.90;;;9.44;91.08;99761.81;4991196;28;20634;-64
2021/12/24 05:11:36;;;;;;;6.40;4.20;;;9.20;99.90;;;9.43;91.20;99762.78;4992132;28;20623;-64
2021/12/24 05:14:05;;;;;;;6.83;4.37;;;9.20;99.90;;;9.34;91.68;99771.31;4990196;28;21398;-64
2021/12/24 05:16:46;;;;;;;14.10;4.67;;;9.10;99.90;;;9.37;92.00;99760.66;5003933;28;20633;-64
2021/12/24 05:21:54;;;;;;;6.10;4.27;;;9.10;99.90;;;9.36;92.17;99778.06;5003298;28;20644;-63
2021/12/24 05:24:26;;;;;;;10.10;4.20;;;9.10;99.90;;;9.33;92.30;99774.88;4999766;28;21263;-64
2021/12/24 05:26:58;;;;;;;7.97;4.37;;;9.10;99.90;;;9.35;92.36;99766.00;5010472;28;20656;-64
2021/12/24 05:29:26;;;;;;;9.57;5.20;;;9.10;99.90;;;9.36;92.39;99770.25;5009555;28;20641;-64
2021/12/24 05:31:53;;;;;;;13.57;4.77;;;9.10;99.90;;;9.35;92.14;99776.41;5010911;28;20647;-64
2021/12/24 05:34:21;;;;;;;7.00;4.70;;;9.10;99.90;;;9.38;92.10;99776.16;5009751;28;20665;-64
2021/12/24 05:36:49;;;;;;;8.20;5.40;;;9.20;99.90;;;9.44;91.45;99779.22;4991453;28;21224;-64
2021/12/24 05:39:18;;;;;;;6.70;4.20;;;9.20;99.90;;;9.38;91.95;99778.78;5009761;28;20629;-64
2021/12/24 05:41:45;;;;;;;10.30;5.33;;;9.10;99.90;;;9.42;91.94;99794.13;4995542;28;21185;-63
2021/12/24 05:44:16;;;;;;;7.10;4.60;;;9.20;99.90;;;9.43;91.89;99793.19;4990519;28;20666;-64
2021/12/24 05:46:45;;;;;;;6.93;4.77;;;9.20;99.90;;;9.41;92.14;99793.31;4991191;28;20636;-63
2021/12/24 05:49:13;;;;;;;5.50;4.33;;;9.20;99.90;;;9.39;92.27;99788.22;4990441;28;20638;-64
2021/12/24 05:51:40;;;;;;;6.10;4.43;;;9.10;99.90;;;9.36;92.08;99796.28;5005514;28;20621;-63
2021/12/24 05:54:07;;;;;;;10.77;5.17;;;9.10;99.90;;;9.36;92.49;99795.47;5009753;28;20677;-63
2021/12/24 05:56:35;;;;;;;5.90;4.60;;;9.10;99.90;;;9.35;92.27;99794.63;5010398;28;20623;-63
2021/12/24 05:59:02;;;;;;;9.47;4.57;;;9.10;99.90;;;9.32;92.53;99792.28;5009741;28;20639;-63
2021/12/24 06:01:29;;;;;;;5.87;3.70;;;9.10;99.90;;;9.31;92.30;99787.19;5009486;28;20640;-64
2021/12/24 06:03:57;;;;;;;10.80;6.27;;;9.10;99.90;;;9.30;92.44;99795.94;5009877;28;20645;-64
2021/12/24 06:06:24;;;;;;;5.00;3.50;;;9.10;99.90;;;9.25;92.25;99779.88;5007872;28;20643;-63
2021/12/24 06:08:51;;;;;;;6.60;4.27;;;9.00;99.90;;;9.21;93.31;99778.47;5011165;28;21241;-64
2021/12/24 06:11:18;;;;;;;5.50;3.50;;;9.00;99.90;;;9.18;93.60;99776.09;5009943;28;20633;-63
2021/12/24 06:13:48;;;;;;;8.40;4.43;;;9.00;99.90;;;9.18;94.02;99787.34;5011310;28;20673;-64
2021/12/24 06:16:15;;;;;;;7.27;5.20;;;8.90;99.90;;;9.18;93.50;99782.13;5003695;28;20656;-63
2021/12/24 06:18:42;;;;;;;7.33;4.80;;;8.90;99.90;;;9.18;93.32;99779.53;5012293;28;20655;-64
2021/12/24 06:21:09;;;;;;;8.70;4.90;;;8.90;99.90;;;9.12;93.80;99789.59;5008884;28;20637;-64
2021/12/24 06:23:38;;;;;;;8.57;5.67;;;8.90;99.90;;;9.13;93.46;99792.09;5011484;28;21036;-63
2021/12/24 06:26:07;;;;;;;9.43;5.40;;;8.90;99.90;;;9.11;93.72;99791.38;5013051;28;20625;-62
2021/12/24 06:28:36;;;;;;;9.00;5.67;;;8.90;99.90;;;9.12;94.26;99792.19;5012309;28;20676;-64
2021/12/24 06:31:03;;;;;;;8.47;5.50;;;8.90;99.90;;;9.08;94.37;99786.41;5014142;28;20628;-64
2021/12/24 06:33:31;;;;;;;11.07;5.20;;;8.90;99.90;;;9.09;94.44;99795.84;5011851;28;21284;-63
2021/12/24 06:35:58;;;;;;;10.57;6.57;;;8.80;99.90;;;9.05;94.85;99789.25;5010856;28;20629;-62
2021/12/24 06:38:25;;;;;;;8.40;5.53;;;8.80;99.90;;;9.06;94.40;99793.50;5014181;28;21264;-63
2021/12/24 06:40:55;;;;;;;10.60;5.60;;;8.80;99.90;;;9.08;94.50;99801.19;5014320;28;21192;-64
2021/12/24 06:43:22;;;;;;;10.37;5.97;;;8.90;99.90;;;9.07;94.82;99805.56;5014348;28;21024;-64
2021/12/24 06:45:49;;;;;;;8.00;4.97;;;8.90;99.90;;;9.05;94.50;99799.66;5014197;28;20642;-64
2021/12/24 06:48:17;;;;;;;10.77;5.50;;;8.90;99.90;;;9.09;94.03;99798.47;4995443;28;20621;-64
2021/12/24 06:50:44;;;;;;;7.87;5.10;;;8.90;99.90;;;9.08;94.27;99801.19;5012544;28;20649;-64
2021/12/24 06:53:11;;;;;;;7.23;4.17;;;8.90;99.90;;;9.09;94.54;99808.06;4994504;28;21229;-64
2021/12/24 06:55:39;;;;;;;8.07;4.60;;;8.80;99.90;;;9.12;94.79;99805.19;5012936;28;20637;-64
2021/12/24 06:58:06;;;;;;;8.70;5.00;;;8.90;99.90;;;9.12;94.18;99803.44;5012909;28;20613;-64
2021/12/24 07:00:34;;;;;;;8.10;4.93;;;8.90;99.90;;;9.19;93.97;99794.19;5011903;28;20636;-64
2021/12/24 07:03:01;;;;;;;10.53;5.70;;;9.00;99.90;;;9.19;93.38;99791.59;5013982;28;21204;-64
2021/12/24 07:05:28;;;;;;;10.50;6.00;;;9.00;99.90;;;9.20;93.29;99800.22;5011648;28;21017;-64
2021/12/24 07:07:55;;;;;;;10.57;4.90;;;9.00;99.90;;;9.20;93.40;99811.47;5013873;28;20631;-64
2021/12/24 07:10:22;;;;;;;9.07;5.90;;;9.00;99.90;;;9.21;92.92;99818.34;5012102;28;21332;-64
2021/12/24 07:12:49;;;;;;;8.23;4.90;;;9.00;99.90;;;9.23;93.13;99810.41;5013391;28;20673;-62
2021/12/24 07:15:16;;;;;;;5.13;4.17;;;9.00;99.90;;;9.23;92.82;99808.63;5012074;28;21003;-64
2021/12/24 07:17:44;;;;;;;6.17;4.27;;;9.00;99.90;;;9.25;93.23;99809.31;4994557;28;20717;-64
2021/12/24 07:20:11;;;;;;;9.33;4.60;;;9.00;99.90;;;9.27;92.84;99817.84;4990925;28;20636;-64
2021/12/24 07:22:38;;;;;;;6.87;4.37;;;9.10;99.90;;;9.32;92.71;99813.09;5013368;28;20644;-63
2021/12/24 07:25:06;;;;;;;17.50;4.83;;;9.10;99.90;;;9.33;92.58;99819.13;5011724;28;20640;-64
2021/12/24 07:27:35;;;;;;;6.17;4.00;;;9.10;99.90;;;9.36;92.77;99834.50;5013506;28;20617;-63
2021/12/24 07:30:08;;;;;;;6.60;3.83;;;9.10;99.90;;;9.34;92.17;99824.22;5009168;28;20631;-64
2021/12/24 07:32:35;;;;;;;9.60;4.97;;;9.20;99.90;;;9.32;92.72;99844.34;5043201;22;21260;-68
2021/12/24 07:35:03;;;;;;;8.90;4.90;;;9.10;99.90;;;9.33;92.24;99838.19;4990716;28;20661;-68
2021/12/24 07:37:30;;;;;;;10.00;5.30;;;9.10;99.90;;;9.32;92.42;99830.50;5005103;28;20618;-66
2021/12/24 07:39:57;;;;;;;10.70;5.50;;;9.10;99.90;;;9.29;92.43;99826.34;5001772;28;20728;-66
2021/12/24 07:42:26;;;;;;;6.60;4.70;;;9.00;99.90;;;9.29;92.08;99830.72;5013255;28;21157;-69
2021/12/24 07:44:53;;;;;;;8.10;4.77;;;9.10;99.90;;;9.27;92.15;99825.66;4980152;28;20658;-69
2021/12/24 07:47:27;;;;;;;7.50;5.20;;;9.00;99.90;;;9.27;92.50;99817.00;4992960;28;20997;-69
2021/12/24 07:50:04;;;;;;;7.63;4.60;;;9.00;99.90;;;9.26;92.35;99810.97;4991779;28;20827;-67
2021/12/24 07:52:32;;;;;;;12.87;5.00;;;9.10;99.90;;;9.24;92.89;99818.06;4990410;28;21055;-68
2021/12/24 07:54:59;;;;;;;9.20;5.33;;;9.00;99.90;;;9.26;92.96;99810.16;4985656;28;21288;-68
2021/12/24 07:57:45;;;;;;;4.70;3.20;;;9.00;99.90;;;9.28;93.11;99814.28;4989958;28;21174;-70
2021/12/24 08:00:13;;;;;;;7.03;4.63;;;9.10;99.90;;;9.36;93.08;99801.50;4993161;28;20633;-67
2021/12/24 08:02:41;;;;;;;5.77;2.80;;;9.10;99.90;;;9.39;92.72;99792.63;4975298;28;20991;-68
2021/12/24 08:05:10;;;;;;;5.30;4.37;;;9.20;99.90;;;9.41;92.71;99789.88;4973534;28;20725;-67
2021/12/24 08:07:37;;;;;;;8.43;4.50;;;9.20;99.90;;;9.47;92.35;99794.59;4989912;28;21104;-70
2021/12/24 08:10:04;;;;;;;4.60;3.67;;;9.30;99.90;;;9.52;92.89;99802.88;4992045;28;20711;-69
2021/12/24 08:12:31;;;;;;;5.80;4.00;;;9.30;99.90;;;9.50;92.20;99802.19;4988761;28;21028;-68
2021/12/24 08:14:58;;;;;;;8.83;4.40;;;9.30;99.90;;;9.50;92.52;99805.59;4973143;28;20670;-66
2021/12/24 08:17:25;;;;;;;7.87;4.07;;;9.30;99.90;;;9.52;92.04;99797.66;4985448;28;20673;-66
2021/12/24 08:19:52;;;;;;;14.70;4.03;;;9.30;99.90;;;9.47;91.81;99794.59;4993335;28;21000;-70
2021/12/24 08:22:19;;;;;;;5.00;3.73;;;9.30;99.90;;;9.46;93.16;99792.94;4991646;28;20634;-67
2021/12/24 08:24:46;;;;;;;11.47;5.33;;;9.20;99.90;;;9.50;92.31;99808.19;4990718;28;20672;-69
2021/12/24 08:27:12;;;;;;;7.03;4.33;;;9.30;99.90;;;9.48;92.42;99810.09;4991958;28;20708;-69
2021/12/24 08:29:39;;;;;;;9.77;4.40;;;9.40;99.90;;;9.50;92.05;99802.19;4974104;28;20616;-66
2021/12/24 08:32:07;;;;;;;7.10;4.90;;;9.30;99.90;;;9.50;92.13;99784.75;4992206;28;20622;-67
2021/12/24 08:34:35;;;;;;;6.17;4.40;;;9.30;99.90;;;9.48;92.15;99784.03;4991712;28;20773;-69
2021/12/24 08:37:02;;;;;;;7.83;4.23;;;9.30;99.90;;;9.47;92.44;99787.63;4992140;28;20638;-66
2021/12/24 08:39:29;;;;;;;7.80;3.37;;;9.20;99.90;;;9.45;92.44;99786.09;4986404;28;20646;-66
2021/12/24 08:41:56;;;;;;;7.87;5.07;;;9.20;99.90;;;9.48;92.81;99796.22;4992636;28;20614;-69
2021/12/24 08:44:28;;;;;;;11.20;5.77;;;9.30;99.90;;;9.42;92.49;99801.94;4991549;28;20672;-69
2021/12/24 08:46:55;;;;;;;10.70;5.37;;;9.20;99.90;;;9.47;92.83;99803.25;4991598;28;20646;-66
2021/12/24 08:49:26;;;;;;;8.37;4.50;;;9.30;99.90;;;9.52;92.47;99802.88;4990930;28;20622;-67
2021/12/24 08:51:54;;;;;;;8.20;4.13;;;9.30;99.90;;;9.54;92.18;99799.16;4990813;28;20733;-67
2021/12/24 08:54:24;;;;;;;6.70;4.13;;;9.40;99.90;;;9.58;91.73;99800.59;4962004;28;20666;-67
2021/12/24 08:56:53;;;;;;;11.30;4.30;;;9.40;99.90;;;9.63;91.41;99802.81;4991206;28;20618;-66
2021/12/24 08:59:21;;;;;;;4.90;3.50;;;9.50;99.90;;;9.62;91.66;99793.38;4974051;28;20624;-67
2021/12/24 09:01:47;;;;;;;9.10;4.90;;;9.40;99.90;;;9.69;90.38;99795.31;4988558;28;21274;-67
2021/12/24 09:04:15;;;;;;;8.43;3.77;;;9.50;99.90;;;9.69;90.54;99790.13;4988826;28;21072;-69
2021/12/24 09:06:42;;;;;;;6.20;4.23;;;9.50;99.90;;;9.69;90.77;99787.50;4973254;28;20640;-69
2021/12/24 09:09:10;;;;;;;9.00;4.70;;;9.50;99.90;;;9.71;90.61;99790.03;4971264;28;20649;-69
2021/12/24 09:11:40;;;;;;;6.83;4.63;;;9.50;99.90;;;9.70;90.26;99793.56;4971826;28;21309;-67
2021/12/24 09:14:08;;;;;;;8.37;4.20;;;9.50;99.90;;;9.74;90.41;99790.59;4988765;28;21139;-68
2021/12/24 09:16:37;;;;;;;5.03;3.67;;;9.60;99.90;;;9.79;89.82;99782.41;4990331;28;20633;-67
2021/12/24 09:19:09;;;;;;;6.30;4.67;;;9.60;99.90;;;9.84;89.47;99788.03;4990704;28;20633;-67
2021/12/24 09:21:36;;;;;;;8.30;4.80;;;9.70;99.90;;;9.86;90.34;99773.13;4991344;28;20648;-69
2021/12/24 09:24:08;;;;;;;5.30;3.60;;;9.70;99.90;;;9.90;89.68;99774.53;4991266;28;20756;-66
2021/12/24 09:26:36;;;;;;;7.13;4.67;;;9.70;99.90;;;9.95;89.02;99767.13;4988023;28;20646;-66
2021/12/24 09:29:07;;;;;;;4.37;3.50;;;9.80;99.90;;;10.06;88.64;99773.13;4990105;28;20641;-69
2021/12/24 09:31:34;;;;;;;7.27;4.10;;;10.00;99.90;;;10.16;87.66;99781.03;4988771;28;20725;-69
2021/12/24 09:34:02;;;;;;;7.13;3.90;;;10.00;99.90;;;10.20;88.07;99787.63;4973030;28;20696;-66
2021/12/24 09:36:29;;;;;;;4.03;3.40;;;10.10;99.90;;;10.19;87.55;99780.78;4989801;28;20645;-67
2021/12/24 09:39:02;;;;;;;6.57;4.57;;;10.00;99.90;;;10.21;87.39;99773.66;4972832;28;20638;-68
2021/12/24 09:41:29;;;;;;;6.07;4.17;;;10.10;99.90;;;10.16;87.41;99780.22;4969758;28;21086;-68
2021/12/24 09:43:58;;;;;;;5.30;4.03;;;9.90;99.90;;;10.17;88.47;99777.47;4979380;28;20901;-66
2021/12/24 09:46:30;;;;;;;6.70;4.00;;;10.00;99.90;;;10.21;87.10;99784.09;4976900;28;20619;-65
2021/12/24 09:48:58;;;;;;;10.33;3.80;;;10.00;99.90;;;10.21;88.04;99775.44;4974677;28;21189;-67
2021/12/24 09:51:27;;;;;;;4.43;3.70;;;10.00;99.90;;;10.21;87.12;99775.44;4989079;28;20645;-65
2021/12/24 09:53:56;;;;;;;0.97;0.90;;;10.10;99.90;;;10.19;87.67;99770.34;4975689;28;20697;-64
2021/12/24 09:56:24;;;;;;;2.40;1.83;;;10.00;99.90;;;10.21;87.95;99783.25;4993691;28;21045;-67
2021/12/24 09:58:51;;;;;;;6.03;3.90;;;10.00;99.90;;;10.24;87.02;99783.84;4993707;28;20634;-67
2021/12/24 10:01:34;;;;;;;6.03;3.83;;;10.10;99.90;;;10.25;86.81;99780.25;4993723;28;20624;-67
2021/12/24 10:04:09;;;;;;;6.67;3.60;;;10.10;99.90;;;10.29;87.11;99786.88;4993405;28;20658;-64
2021/12/24 10:06:38;;;;;;;4.90;4.00;;;10.10;99.90;;;10.31;86.87;99790.16;4994588;28;21092;-68
2021/12/24 10:09:12;;;;;;;9.00;4.10;;;10.20;99.90;;;10.32;87.35;99786.63;4993470;28;20652;-65
2021/12/24 10:11:49;;;;;;;7.30;4.53;;;10.20;99.90;;;10.33;86.38;99787.47;4977065;28;21165;-67
2021/12/24 10:14:20;;;;;;;5.63;3.50;;;10.10;99.90;;;10.29;86.79;99783.44;4976005;28;20670;-65
2021/12/24 10:16:50;;;;;;;5.70;3.67;;;10.10;99.90;;;10.24;87.29;99788.22;4994758;28;20618;-67
2021/12/24 10:19:19;;;;;;;7.70;4.10;;;10.00;99.90;;;10.18;87.36;99778.31;4993590;28;20995;-67
2021/12/24 10:21:55;;;;;;;4.97;3.80;;;9.90;99.90;;;10.12;87.52;99780.47;4960838;28;21205;-66
2021/12/24 10:24:23;;;;;;;4.70;3.53;;;9.90;99.90;;;10.08;88.81;99783.41;4993509;28;20675;-66
2021/12/24 10:26:53;;;;;;;3.90;3.00;;;9.80;99.90;;;10.13;87.93;99779.53;4994826;28;20743;-66
2021/12/24 10:29:38;;;;;;;6.20;3.80;;;9.90;99.90;;;10.12;87.63;99771.81;4993423;28;20980;-67
2021/12/24 10:32:14;;;;;;;6.33;4.47;;;9.90;99.90;;;10.13;88.25;99770.88;4976619;28;21101;-65
2021/12/24 10:34:43;;;;;;;2.60;2.40;;;9.90;99.90;;;10.14;87.97;99767.28;4991841;28;21253;-66
2021/12/24 10:37:14;;;;;;;5.70;3.20;;;9.90;99.90;;;10.18;88.13;99767.88;4987677;28;21247;-70
2021/12/24 10:39:58;;;;;;;5.63;3.53;;;10.00;99.90;;;10.19;87.96;99780.78;4986546;28;20635;-69
2021/12/24 10:42:32;;;;;;;5.20;4.17;;;10.00;99.90;;;10.16;88.31;99769.78;4975568;28;21201;-66
2021/12/24 10:45:03;;;;;;;3.80;3.27;;;9.90;99.90;;;10.13;87.81;99755.22;4990150;28;21189;-68
2021/12/24 10:47:39;;;;;;;5.73;4.33;;;9.90;99.90;;;10.10;89.05;99755.44;4992763;28;20624;-66
2021/12/24 10:53:16;;;;;;;6.20;3.90;;;9.90;99.90;;;10.13;88.47;99756.06;4976601;28;20668;-69
2021/12/24 10:55:54;;;;;;;3.40;3.10;;;9.90;99.90;;;10.13;89.11;99742.19;4990204;28;21754;-69
2021/12/24 10:58:26;;;;;;;5.70;3.73;;;9.90;99.90;;;10.14;89.34;99747.28;4992826;28;20732;-66
2021/12/24 11:01:01;;;;;;;4.87;3.70;;;9.90;99.90;;;10.17;89.38;99730.56;4972078;28;20639;-69
2021/12/24 11:03:32;;;;;;;6.67;3.87;;;10.00;99.90;;;10.15;89.72;99727.25;4989841;28;20708;-68
2021/12/24 11:06:08;;;;;;;5.33;3.80;;;10.00;99.90;;;10.22;89.01;99719.75;4975458;28;20630;-66
2021/12/24 11:08:36;;;;;;;7.50;4.10;;;10.00;99.90;;;10.29;89.17;99726.06;4991841;28;20669;-69
2021/12/24 11:11:06;;;;;;;5.20;3.90;;;10.10;99.90;;;10.33;88.40;99717.84;4992999;28;20644;-66
2021/12/24 11:13:41;;;;;;;5.67;3.87;;;10.20;99.90;;;10.41;88.88;99712.84;4989459;28;20694;-66
2021/12/24 11:16:20;;;;;;;5.10;4.00;;;10.20;99.90;;;10.42;87.81;99711.88;4988317;28;20621;-66
2021/12/24 11:19:05;;;;;;;7.13;5.00;;;10.30;99.90;;;10.43;88.24;99716.16;4992461;28;20633;-67
2021/12/24 11:21:33;;;;;;;6.50;3.80;;;10.30;99.90;;;10.41;88.28;99723.28;4992136;28;20641;-66
2021/12/24 11:24:00;;;;;;;4.80;3.90;;;10.20;99.90;;;10.38;88.70;99707.88;4993368;28;20681;-66
2021/12/24 11:26:31;;;;;;;8.50;4.63;;;10.20;99.90;;;10.36;87.68;99709.78;4989068;28;20669;-65
2021/12/24 11:28:59;;;;;;;6.50;3.50;;;10.20;99.90;;;10.32;88.35;99713.63;4993233;28;20614;-67
2021/12/24 11:31:32;;;;;;;6.87;3.70;;;10.10;99.90;;;10.29;87.96;99721.69;4972143;28;20630;-67
2021/12/24 11:34:00;;;;;;;5.90;3.53;;;10.10;99.90;;;10.24;89.12;99716.06;4977379;28;20675;-67
2021/12/24 11:36:29;;;;;;;5.40;4.10;;;10.00;99.90;;;10.20;89.09;99713.84;4991697;28;20737;-67
2021/12/24 11:39:06;;;;;;;6.37;4.17;;;10.00;99.90;;;10.20;89.02;99724.25;4973336;28;20612;-66
2021/12/24 11:41:37;;;;;;;7.17;3.67;;;10.00;99.90;;;10.16;88.85;99713.25;4974482;28;20623;-65
2021/12/24 11:44:07;;;;;;;6.40;2.83;;;9.90;99.90;;;10.12;88.88;99698.84;4975443;28;20639;-67
2021/12/24 11:46:37;;;;;;;3.50;3.20;;;9.90;99.90;;;10.00;89.47;99703.28;4992271;28;20626;-68
2021/12/24 11:49:05;;;;;;;5.70;3.70;;;9.80;99.90;;;10.00;89.81;99702.44;4989612;28;20630;-68
2021/12/24 11:51:40;;;;;;;6.83;3.17;;;9.80;99.90;;;9.97;90.07;99694.88;4992585;28;20626;-66
2021/12/24 11:54:10;;;;;;;9.00;3.70;;;9.70;99.90;;;9.95;90.75;99688.97;4992529;28;20674;-65
2021/12/24 11:56:46;;;;;;;3.90;3.50;;;9.70;99.90;;;9.95;89.63;99697.63;4991437;28;20629;-68
2021/12/24 11:59:15;;;;;;;9.47;5.90;;;9.70;99.90;;;9.98;89.87;99693.94;4993364;28;20617;-68
2021/12/24 12:01:44;;;;;;;9.00;5.20;;;9.80;99.90;;;9.91;90.75;99688.41;4992940;28;20733;-66
2021/12/24 12:04:15;;;;;;;4.57;3.53;;;9.70;99.90;;;9.98;90.44;99683.50;4989751;28;20642;-68
2021/12/24 12:06:42;;;;;;;7.40;3.80;;;9.80;99.90;;;9.95;89.97;99681.97;4989943;28;20623;-68
2021/12/24 12:09:11;;;;;;;5.90;3.07;;;9.70;99.90;;;9.95;89.81;99673.34;4993308;28;20633;-70
2021/12/24 12:11:42;;;;;;;4.57;2.80;;;9.70;99.90;;;9.86;90.92;99666.31;4992155;28;20637;-67
2021/12/24 12:14:14;;;;;;;3.13;2.60;;;9.60;99.90;;;9.81;91.69;99664.09;4992966;28;20686;-68
2021/12/24 12:16:53;;;;;;;2.23;1.90;;;9.60;99.90;;;9.75;92.07;99658.56;4992644;28;20692;-68
2021/12/24 12:19:44;;;;;;;3.30;2.17;;;9.50;99.90;;;9.85;91.71;99644.63;4976205;28;20606;-67
2021/12/24 12:23:02;;;;;;;3.90;2.87;;;9.60;99.90;;;9.96;91.36;99643.72;4973054;28;20630;-70
2021/12/24 12:25:36;;;;;;;1.20;1.20;;;9.80;99.90;;;9.85;92.25;99655.06;4987932;28;20632;-70
2021/12/24 12:28:07;;;;;;;2.47;2.00;;;9.70;99.90;;;9.90;92.55;99652.88;4987138;28;20721;-70
2021/12/24 12:30:48;;;;;;;2.57;2.37;;;9.70;99.90;;;9.93;91.84;99659.63;4975741;28;20622;-67
2021/12/24 12:33:22;;;;;;;2.30;2.17;;;9.70;99.90;;;9.90;92.71;99658.09;4992781;28;20673;-70
2021/12/24 12:35:56;;;;;;;3.10;2.43;;;9.70;99.90;;;9.92;92.63;99658.78;4992598;28;20665;-68